sensor_id;sensor_type;location;lat;lon;timestamp;pressure;altitude;pressure_sealevel;temperature;humidity
66381;BME280;53177;52.648;1.214;2023-07-08T00:00:28;101077.41;;;18.94;66.95
66381;BME280;53177;52.648;1.214;2023-07-08T00:02:54;101076.84;;;18.87;67.00
66381;BME280;53177;52.648;1.214;2023-07-08T00:05:21;101084.50;;;18.95;66.20
66381;BME280;53177;52.648;1.214;2023-07-08T00:07:48;101082.81;;;18.92;68.04
66381;BME280;53177;52.648;1.214;2023-07-08T00:10:22;101080.31;;;18.89;68.09
66381;BME280;53177;52.648;1.214;2023-07-08T00:12:52;101080.41;;;18.88;66.53
66381;BME280;53177;52.648;1.214;2023-07-08T00:15:21;101076.84;;;18.87;67.83
66381;BME280;53177;52.648;1.214;2023-07-08T00:17:47;101075.19;;;18.85;66.12
66381;BME280;53177;52.648;1.214;2023-07-08T00:20:23;101070.13;;;18.79;65.95
66381;BME280;53177;52.648;1.214;2023-07-08T00:22:54;101070.13;;;18.79;68.25
66381;BME280;53177;52.648;1.214;2023-07-08T00:25:20;101070.38;;;18.74;67.39
66381;BME280;53177;52.648;1.214;2023-07-08T00:27:46;101068.50;;;18.76;67.59
66381;BME280;53177;52.648;1.214;2023-07-08T00:32:48;101072.34;;;18.71;68.21
66381;BME280;53177;52.648;1.214;2023-07-08T00:35:42;101066.66;;;18.60;68.40
66381;BME280;53177;52.648;1.214;2023-07-08T00:41:10;101069.81;;;18.68;67.64
66381;BME280;53177;52.648;1.214;2023-07-08T00:43:46;101062.16;;;18.60;69.49
66381;BME280;53177;52.648;1.214;2023-07-08T00:48:49;101054.13;;;18.60;67.55
66381;BME280;53177;52.648;1.214;2023-07-08T00:51:18;101053.19;;;18.61;68.84
66381;BME280;53177;52.648;1.214;2023-07-08T00:53:44;101057.03;;;18.56;68.21
66381;BME280;53177;52.648;1.214;2023-07-08T00:56:23;101061.53;;;18.55;69.21
66381;BME280;53177;52.648;1.214;2023-07-08T00:58:56;101051.63;;;18.57;67.74
66381;BME280;53177;52.648;1.214;2023-07-08T01:01:24;101058.13;;;18.52;68.50
66381;BME280;53177;52.648;1.214;2023-07-08T01:03:56;101049.00;;;18.56;67.12
66381;BME280;53177;52.648;1.214;2023-07-08T01:06:24;101049.66;;;18.61;67.09
66381;BME280;53177;52.648;1.214;2023-07-08T01:09:00;101056.16;;;18.55;67.93
66381;BME280;53177;52.648;1.214;2023-07-08T01:11:31;101054.28;;;18.57;67.23
66381;BME280;53177;52.648;1.214;2023-07-08T01:13:59;101062.25;;;18.59;67.42
66381;BME280;53177;52.648;1.214;2023-07-08T01:16:26;101051.56;;;18.59;67.62
66381;BME280;53177;52.648;1.214;2023-07-08T01:18:52;101058.47;;;18.63;66.76
66381;BME280;53177;52.648;1.214;2023-07-08T01:24:19;101056.66;;;18.63;67.08
66381;BME280;53177;52.648;1.214;2023-07-08T01:26:45;101059.50;;;18.60;66.37
66381;BME280;53177;52.648;1.214;2023-07-08T01:29:12;101051.94;;;18.68;65.30
66381;BME280;53177;52.648;1.214;2023-07-08T01:31:38;101056.25;;;18.71;66.34
66381;BME280;53177;52.648;1.214;2023-07-08T01:34:04;101054.63;;;18.68;66.57
66381;BME280;53177;52.648;1.214;2023-07-08T01:36:36;101052.47;;;18.75;66.23
66381;BME280;53177;52.648;1.214;2023-07-08T01:39:04;101049.81;;;18.75;65.67
66381;BME280;53177;52.648;1.214;2023-07-08T01:41:29;101056.03;;;18.75;64.50
66381;BME280;53177;52.648;1.214;2023-07-08T01:43:54;101056.59;;;18.82;64.84
66381;BME280;53177;52.648;1.214;2023-07-08T01:46:23;101050.28;;;18.83;64.73
66381;BME280;53177;52.648;1.214;2023-07-08T01:48:54;101052.25;;;18.79;66.30
66381;BME280;53177;52.648;1.214;2023-07-08T01:51:21;101053.91;;;18.82;65.39
66381;BME280;53177;52.648;1.214;2023-07-08T01:53:47;101043.81;;;18.87;65.04
66381;BME280;53177;52.648;1.214;2023-07-08T01:56:13;101042.09;;;18.86;65.66
66381;BME280;53177;52.648;1.214;2023-07-08T01:58:39;101040.44;;;18.83;65.90
66381;BME280;53177;52.648;1.214;2023-07-08T02:01:05;101036.19;;;18.79;66.44
66381;BME280;53177;52.648;1.214;2023-07-08T02:03:31;101029.25;;;18.75;66.93
66381;BME280;53177;52.648;1.214;2023-07-08T02:05:57;101029.41;;;18.72;66.29
66381;BME280;53177;52.648;1.214;2023-07-08T02:08:23;101028.38;;;18.75;66.43
66381;BME280;53177;52.648;1.214;2023-07-08T02:10:51;101028.59;;;18.70;66.38
66381;BME280;53177;52.648;1.214;2023-07-08T02:13:17;101021.66;;;18.66;65.91
66381;BME280;53177;52.648;1.214;2023-07-08T02:15:43;101024.44;;;18.65;67.37
66381;BME280;53177;52.648;1.214;2023-07-08T02:18:08;101029.16;;;18.60;67.67
66381;BME280;53177;52.648;1.214;2023-07-08T02:20:33;101023.72;;;18.61;65.98
66381;BME280;53177;52.648;1.214;2023-07-08T02:22:59;101014.50;;;18.67;67.04
66381;BME280;53177;52.648;1.214;2023-07-08T02:25:24;101014.59;;;18.65;67.02
66381;BME280;53177;52.648;1.214;2023-07-08T02:27:50;101010.94;;;18.66;66.63
66381;BME280;53177;52.648;1.214;2023-07-08T02:30:15;101014.59;;;18.65;66.15
66381;BME280;53177;52.648;1.214;2023-07-08T02:32:41;101013.00;;;18.61;68.00
66381;BME280;53177;52.648;1.214;2023-07-08T02:35:08;101012.47;;;18.55;67.31
66381;BME280;53177;52.648;1.214;2023-07-08T02:37:34;101007.38;;;18.48;67.19
66381;BME280;53177;52.648;1.214;2023-07-08T02:40:00;101009.34;;;18.45;69.07
66381;BME280;53177;52.648;1.214;2023-07-08T02:42:26;101006.75;;;18.43;68.09
66381;BME280;53177;52.648;1.214;2023-07-08T02:44:51;101003.09;;;18.44;68.44
66381;BME280;53177;52.648;1.214;2023-07-08T02:47:17;100998.22;;;18.35;69.24
66381;BME280;53177;52.648;1.214;2023-07-08T02:49:42;100996.50;;;18.34;69.51
66381;BME280;53177;52.648;1.214;2023-07-08T02:52:08;100994.13;;;18.28;71.04
66381;BME280;53177;52.648;1.214;2023-07-08T02:54:33;100990.88;;;18.22;70.75
66381;BME280;53177;52.648;1.214;2023-07-08T02:56:58;100985.50;;;18.22;69.78
66381;BME280;53177;52.648;1.214;2023-07-08T02:59:25;100991.72;;;18.22;70.68
66381;BME280;53177;52.648;1.214;2023-07-08T03:01:52;100987.78;;;18.12;71.62
66381;BME280;53177;52.648;1.214;2023-07-08T03:04:21;100989.75;;;18.09;71.01
66381;BME280;53177;52.648;1.214;2023-07-08T03:06:53;100993.25;;;18.11;71.53
66381;BME280;53177;52.648;1.214;2023-07-08T03:09:24;100993.16;;;18.12;71.29
66381;BME280;53177;52.648;1.214;2023-07-08T03:11:53;100992.28;;;18.12;71.30
66381;BME280;53177;52.648;1.214;2023-07-08T03:14:26;100991.28;;;18.14;70.17
66381;BME280;53177;52.648;1.214;2023-07-08T03:16:58;100992.38;;;18.10;70.04
66381;BME280;53177;52.648;1.214;2023-07-08T03:19:27;100992.28;;;18.12;72.43
66381;BME280;53177;52.648;1.214;2023-07-08T03:21:59;100989.44;;;18.15;69.95
66381;BME280;53177;52.648;1.214;2023-07-08T03:24:29;101000.03;;;18.18;70.80
66381;BME280;53177;52.648;1.214;2023-07-08T03:26:58;101003.84;;;18.12;71.26
66381;BME280;53177;52.648;1.214;2023-07-08T03:29:32;100995.81;;;18.12;72.61
66381;BME280;53177;52.648;1.214;2023-07-08T03:31:59;101003.13;;;18.09;71.60
66381;BME280;53177;52.648;1.214;2023-07-08T03:34:24;101002.25;;;18.08;72.69
66381;BME280;53177;52.648;1.214;2023-07-08T03:36:52;100997.22;;;18.02;72.61
66381;BME280;53177;52.648;1.214;2023-07-08T03:39:23;101006.50;;;17.95;74.33
66381;BME280;53177;52.648;1.214;2023-07-08T03:41:50;101009.69;;;17.84;75.00
66381;BME280;53177;52.648;1.214;2023-07-08T03:44:16;101009.81;;;17.81;75.16
66381;BME280;53177;52.648;1.214;2023-07-08T03:46:43;101011.66;;;17.81;73.32
66381;BME280;53177;52.648;1.214;2023-07-08T03:49:09;101004.56;;;17.80;73.94
66381;BME280;53177;52.648;1.214;2023-07-08T03:51:36;101001.31;;;17.73;75.84
66381;BME280;53177;52.648;1.214;2023-07-08T03:54:03;101011.00;;;17.76;74.89
66381;BME280;53177;52.648;1.214;2023-07-08T03:56:29;101012.44;;;17.64;74.28
66381;BME280;53177;52.648;1.214;2023-07-08T03:58:55;101012.28;;;17.67;75.30
66381;BME280;53177;52.648;1.214;2023-07-08T04:01:21;101016.91;;;17.64;74.40
66381;BME280;53177;52.648;1.214;2023-07-08T04:03:49;101013.59;;;17.59;74.77
66381;BME280;53177;52.648;1.214;2023-07-08T04:06:14;101007.44;;;17.57;76.46
66381;BME280;53177;52.648;1.214;2023-07-08T04:08:40;101008.34;;;17.56;76.18
66381;BME280;53177;52.648;1.214;2023-07-08T04:11:06;101003.94;;;17.55;75.77
66381;BME280;53177;52.648;1.214;2023-07-08T04:13:32;101002.22;;;17.53;75.81
66381;BME280;53177;52.648;1.214;2023-07-08T04:16:00;101003.84;;;17.56;74.78
66381;BME280;53177;52.648;1.214;2023-07-08T04:18:27;101006.00;;;17.48;77.74
66381;BME280;53177;52.648;1.214;2023-07-08T04:20:52;101009.72;;;17.45;78.01
66381;BME280;53177;52.648;1.214;2023-07-08T04:23:22;101011.50;;;17.45;76.37
66381;BME280;53177;52.648;1.214;2023-07-08T04:25:49;101007.69;;;17.50;76.15
66381;BME280;53177;52.648;1.214;2023-07-08T04:28:15;101004.94;;;17.52;75.28
66381;BME280;53177;52.648;1.214;2023-07-08T04:30:41;101008.44;;;17.54;76.39
66381;BME280;53177;52.648;1.214;2023-07-08T04:33:12;101001.34;;;17.53;76.53
66381;BME280;53177;52.648;1.214;2023-07-08T04:35:38;101005.81;;;17.52;76.87
66381;BME280;53177;52.648;1.214;2023-07-08T04:38:06;100997.63;;;17.56;77.19
66381;BME280;53177;52.648;1.214;2023-07-08T04:40:35;101002.97;;;17.56;76.25
66381;BME280;53177;52.648;1.214;2023-07-08T04:43:06;101001.94;;;17.60;76.16
66381;BME280;53177;52.648;1.214;2023-07-08T04:45:31;101008.09;;;17.62;77.55
66381;BME280;53177;52.648;1.214;2023-07-08T04:47:57;101002.66;;;17.63;77.25
66381;BME280;53177;52.648;1.214;2023-07-08T04:50:23;100998.84;;;17.69;76.34
66381;BME280;53177;52.648;1.214;2023-07-08T04:52:49;100993.28;;;17.73;76.31
66381;BME280;53177;52.648;1.214;2023-07-08T04:55:15;100987.84;;;17.75;75.81
66381;BME280;53177;52.648;1.214;2023-07-08T04:57:41;100985.97;;;17.77;76.42
66381;BME280;53177;52.648;1.214;2023-07-08T05:00:07;100984.03;;;17.80;77.18
66381;BME280;53177;52.648;1.214;2023-07-08T05:02:37;100992.97;;;17.79;75.52
66381;BME280;53177;52.648;1.214;2023-07-08T05:05:03;100991.91;;;17.83;76.69
66381;BME280;53177;52.648;1.214;2023-07-08T05:07:28;100981.69;;;17.91;77.18
66381;BME280;53177;52.648;1.214;2023-07-08T05:09:54;100975.38;;;17.92;77.31
66381;BME280;53177;52.648;1.214;2023-07-08T05:12:19;100976.34;;;17.91;76.77
66381;BME280;53177;52.648;1.214;2023-07-08T05:14:44;100976.41;;;17.90;75.74
66381;BME280;53177;52.648;1.214;2023-07-08T05:17:10;100983.34;;;17.94;77.52
66381;BME280;53177;52.648;1.214;2023-07-08T05:19:35;100993.13;;;17.95;77.87
66381;BME280;53177;52.648;1.214;2023-07-08T05:22:00;101001.16;;;17.95;76.89
66381;BME280;53177;52.648;1.214;2023-07-08T05:24:26;100991.06;;;18.00;76.94
66381;BME280;53177;52.648;1.214;2023-07-08T05:26:52;100998.72;;;18.08;76.53
66381;BME280;53177;52.648;1.214;2023-07-08T05:29:17;100987.00;;;18.10;76.74
66381;BME280;53177;52.648;1.214;2023-07-08T05:31:42;100987.78;;;18.12;76.36
66381;BME280;53177;52.648;1.214;2023-07-08T05:34:08;100990.25;;;18.17;76.25
66381;BME280;53177;52.648;1.214;2023-07-08T05:36:33;100985.59;;;18.20;75.95
66381;BME280;53177;52.648;1.214;2023-07-08T05:38:59;100988.78;;;18.28;75.44
66381;BME280;53177;52.648;1.214;2023-07-08T05:41:24;100981.44;;;18.32;74.71
66381;BME280;53177;52.648;1.214;2023-07-08T05:43:49;100983.03;;;18.36;74.82
66381;BME280;53177;52.648;1.214;2023-07-08T05:46:15;100982.66;;;18.43;75.30
66381;BME280;53177;52.648;1.214;2023-07-08T05:48:40;100985.00;;;18.49;75.02
66381;BME280;53177;52.648;1.214;2023-07-08T05:51:05;100985.75;;;18.53;76.59
66381;BME280;53177;52.648;1.214;2023-07-08T05:53:31;100995.34;;;18.57;76.03
66381;BME280;53177;52.648;1.214;2023-07-08T05:55:56;100999.44;;;18.64;75.99
66381;BME280;53177;52.648;1.214;2023-07-08T05:58:22;100996.38;;;18.72;74.46
66381;BME280;53177;52.648;1.214;2023-07-08T06:00:47;100999.44;;;18.81;73.89
66381;BME280;53177;52.648;1.214;2023-07-08T06:03:13;101002.75;;;18.86;74.09
66381;BME280;53177;52.648;1.214;2023-07-08T06:05:38;101004.88;;;18.97;73.24
66381;BME280;53177;52.648;1.214;2023-07-08T06:08:05;100987.59;;;19.03;73.56
66381;BME280;53177;52.648;1.214;2023-07-08T06:10:31;100986.56;;;19.05;72.08
66381;BME280;53177;52.648;1.214;2023-07-08T06:12:56;100998.88;;;19.09;72.26
66381;BME280;53177;52.648;1.214;2023-07-08T06:15:22;101002.00;;;19.17;73.18
66381;BME280;53177;52.648;1.214;2023-07-08T06:17:47;101003.56;;;19.21;73.95
66381;BME280;53177;52.648;1.214;2023-07-08T06:20:13;101004.69;;;19.33;72.43
66381;BME280;53177;52.648;1.214;2023-07-08T06:22:39;101003.13;;;19.46;72.48
66381;BME280;53177;52.648;1.214;2023-07-08T06:25:04;100999.78;;;19.58;71.32
66381;BME280;53177;52.648;1.214;2023-07-08T06:27:30;101011.03;;;19.65;71.24
66381;BME280;53177;52.648;1.214;2023-07-08T06:29:55;101005.69;;;19.65;70.91
66381;BME280;53177;52.648;1.214;2023-07-08T06:32:20;101002.56;;;19.72;72.22
66381;BME280;53177;52.648;1.214;2023-07-08T06:34:46;101012.88;;;19.80;72.75
66381;BME280;53177;52.648;1.214;2023-07-08T06:37:11;101009.66;;;19.89;72.58
66381;BME280;53177;52.648;1.214;2023-07-08T06:39:36;101003.84;;;19.97;71.13
66381;BME280;53177;52.648;1.214;2023-07-08T06:42:02;101009.72;;;20.03;70.86
66381;BME280;53177;52.648;1.214;2023-07-08T06:44:27;100998.22;;;20.01;69.53
66381;BME280;53177;52.648;1.214;2023-07-08T06:46:53;100995.72;;;19.98;71.30
66381;BME280;53177;52.648;1.214;2023-07-08T06:49:18;101002.72;;;20.01;71.01
66381;BME280;53177;52.648;1.214;2023-07-08T06:51:44;100998.84;;;20.06;69.99
66381;BME280;53177;52.648;1.214;2023-07-08T06:54:11;100997.78;;;20.24;69.65
66381;BME280;53177;52.648;1.214;2023-07-08T06:56:41;100999.88;;;20.35;70.18
66381;BME280;53177;52.648;1.214;2023-07-08T06:59:07;100993.53;;;20.36;67.87
66381;BME280;53177;52.648;1.214;2023-07-08T07:01:33;100991.53;;;20.39;68.65
66381;BME280;53177;52.648;1.214;2023-07-08T07:03:59;100987.53;;;20.47;69.51
66381;BME280;53177;52.648;1.214;2023-07-08T07:06:25;100985.06;;;20.58;68.03
66381;BME280;53177;52.648;1.214;2023-07-08T07:08:51;100990.00;;;20.65;68.16
66381;BME280;53177;52.648;1.214;2023-07-08T07:11:16;100988.56;;;20.74;68.71
66381;BME280;53177;52.648;1.214;2023-07-08T07:13:44;100985.22;;;20.84;66.62
66381;BME280;53177;52.648;1.214;2023-07-08T07:16:09;100986.28;;;20.96;67.57
66381;BME280;53177;52.648;1.214;2023-07-08T07:18:35;100993.00;;;21.03;67.44
66381;BME280;53177;52.648;1.214;2023-07-08T07:21:00;100996.38;;;21.07;68.64
66381;BME280;53177;52.648;1.214;2023-07-08T07:23:25;101000.44;;;21.14;66.44
66381;BME280;53177;52.648;1.214;2023-07-08T07:25:51;100993.56;;;21.24;67.60
66381;BME280;53177;52.648;1.214;2023-07-08T07:28:17;100987.38;;;21.36;67.87
66381;BME280;53177;52.648;1.214;2023-07-08T07:30:43;100998.66;;;21.43;66.45
66381;BME280;53177;52.648;1.214;2023-07-08T07:33:10;100998.94;;;21.52;65.81
66381;BME280;53177;52.648;1.214;2023-07-08T07:35:42;100994.00;;;21.59;65.75
66381;BME280;53177;52.648;1.214;2023-07-08T07:38:08;100997.47;;;21.75;66.30
66381;BME280;53177;52.648;1.214;2023-07-08T07:40:33;100993.88;;;21.89;66.91
66381;BME280;53177;52.648;1.214;2023-07-08T07:42:59;100999.75;;;21.95;67.42
66381;BME280;53177;52.648;1.214;2023-07-08T07:45:24;100999.25;;;22.03;67.42
66381;BME280;53177;52.648;1.214;2023-07-08T07:47:50;100998.72;;;22.10;64.98
66381;BME280;53177;52.648;1.214;2023-07-08T07:50:16;101001.91;;;22.17;64.96
66381;BME280;53177;52.648;1.214;2023-07-08T07:52:42;100999.38;;;22.28;64.36
66381;BME280;53177;52.648;1.214;2023-07-08T07:55:08;100996.47;;;22.31;64.37
66381;BME280;53177;52.648;1.214;2023-07-08T07:57:33;101001.34;;;22.39;65.58
66381;BME280;53177;52.648;1.214;2023-07-08T07:59:59;100999.19;;;22.44;63.43
66381;BME280;53177;52.648;1.214;2023-07-08T08:02:24;101002.53;;;22.47;63.87
66381;BME280;53177;52.648;1.214;2023-07-08T08:04:49;100999.13;;;22.58;62.62
66381;BME280;53177;52.648;1.214;2023-07-08T08:07:15;100996.97;;;22.63;64.47
66381;BME280;53177;52.648;1.214;2023-07-08T08:09:40;101009.34;;;22.79;64.26
66381;BME280;53177;52.648;1.214;2023-07-08T08:12:08;101008.06;;;22.85;62.82
66381;BME280;53177;52.648;1.214;2023-07-08T08:14:33;101012.91;;;22.93;60.51
66381;BME280;53177;52.648;1.214;2023-07-08T08:16:59;101014.34;;;22.98;61.46
66381;BME280;53177;52.648;1.214;2023-07-08T08:19:25;101011.75;;;23.09;61.92
66381;BME280;53177;52.648;1.214;2023-07-08T08:21:50;101012.59;;;23.22;60.89
66381;BME280;53177;52.648;1.214;2023-07-08T08:24:15;101007.69;;;23.42;60.16
66381;BME280;53177;52.648;1.214;2023-07-08T08:26:41;101013.16;;;23.53;60.09
66381;BME280;53177;52.648;1.214;2023-07-08T08:29:06;101015.00;;;23.65;59.30
66381;BME280;53177;52.648;1.214;2023-07-08T08:31:31;101011.78;;;23.84;61.78
66381;BME280;53177;52.648;1.214;2023-07-08T08:33:57;101016.84;;;24.01;59.17
66381;BME280;53177;52.648;1.214;2023-07-08T08:36:23;101007.31;;;24.08;57.76
66381;BME280;53177;52.648;1.214;2023-07-08T08:38:48;101000.69;;;24.12;58.55
66381;BME280;53177;52.648;1.214;2023-07-08T08:41:17;101006.34;;;24.33;59.07
66381;BME280;53177;52.648;1.214;2023-07-08T08:43:44;101007.03;;;24.47;58.36
66381;BME280;53177;52.648;1.214;2023-07-08T08:46:42;101001.84;;;24.68;58.03
66381;BME280;53177;52.648;1.214;2023-07-08T08:51:42;101007.75;;;25.08;57.56
66381;BME280;53177;52.648;1.214;2023-07-08T08:54:08;101013.66;;;25.13;56.29
66381;BME280;53177;52.648;1.214;2023-07-08T08:59:27;101005.91;;;25.08;58.92
66381;BME280;53177;52.648;1.214;2023-07-08T09:01:56;100999.53;;;25.43;59.57
66381;BME280;53177;52.648;1.214;2023-07-08T09:04:28;101009.41;;;25.66;58.71
66381;BME280;53177;52.648;1.214;2023-07-08T09:07:13;101009.56;;;25.53;58.05
66381;BME280;53177;52.648;1.214;2023-07-08T09:09:47;101016.06;;;25.62;58.25
66381;BME280;53177;52.648;1.214;2023-07-08T09:12:21;101023.72;;;25.57;57.84
66381;BME280;53177;52.648;1.214;2023-07-08T09:14:50;101028.88;;;25.60;58.79
66381;BME280;53177;52.648;1.214;2023-07-08T09:17:32;101040.44;;;25.73;56.02
66381;BME280;53177;52.648;1.214;2023-07-08T09:20:25;101031.38;;;26.17;54.96
66381;BME280;53177;52.648;1.214;2023-07-08T09:23:20;101033.38;;;26.58;50.85
66381;BME280;53177;52.648;1.214;2023-07-08T09:26:03;101039.97;;;26.76;49.74
66381;BME280;53177;52.648;1.214;2023-07-08T09:28:38;101024.78;;;26.85;51.12
66381;BME280;53177;52.648;1.214;2023-07-08T09:31:06;101037.06;;;27.00;50.81
66381;BME280;53177;52.648;1.214;2023-07-08T09:33:32;101031.31;;;27.24;51.76
66381;BME280;53177;52.648;1.214;2023-07-08T09:35:59;101025.97;;;27.13;48.95
66381;BME280;53177;52.648;1.214;2023-07-08T09:38:25;101020.75;;;27.21;49.03
66381;BME280;53177;52.648;1.214;2023-07-08T09:40:52;101020.25;;;27.57;49.77
66381;BME280;53177;52.648;1.214;2023-07-08T09:43:27;101022.56;;;27.62;50.95
66381;BME280;53177;52.648;1.214;2023-07-08T09:45:57;101010.47;;;27.75;48.25
66381;BME280;53177;52.648;1.214;2023-07-08T09:48:36;101004.03;;;28.26;47.82
66381;BME280;53177;52.648;1.214;2023-07-08T09:51:03;101020.66;;;28.51;48.12
66381;BME280;53177;52.648;1.214;2023-07-08T09:53:28;101012.91;;;28.57;47.36
66381;BME280;53177;52.648;1.214;2023-07-08T09:55:56;101010.97;;;28.78;46.55
66381;BME280;53177;52.648;1.214;2023-07-08T09:58:33;101023.09;;;28.64;45.83
66381;BME280;53177;52.648;1.214;2023-07-08T10:01:09;101013.13;;;28.74;45.84
66381;BME280;53177;52.648;1.214;2023-07-08T10:03:36;101021.97;;;28.76;44.24
66381;BME280;53177;52.648;1.214;2023-07-08T10:06:05;101012.34;;;29.11;42.81
66381;BME280;53177;52.648;1.214;2023-07-08T10:08:40;101021.38;;;29.01;43.37
66381;BME280;53177;52.648;1.214;2023-07-08T10:13:45;101015.50;;;28.58;44.80
66381;BME280;53177;52.648;1.214;2023-07-08T10:16:23;101014.63;;;28.58;45.94
66381;BME280;53177;52.648;1.214;2023-07-08T10:18:49;101023.22;;;28.53;46.39
66381;BME280;53177;52.648;1.214;2023-07-08T10:21:37;101020.06;;;28.38;45.46
66381;BME280;53177;52.648;1.214;2023-07-08T10:29:58;101034.81;;;29.41;44.91
66381;BME280;53177;52.648;1.214;2023-07-08T10:35:18;101022.81;;;29.06;45.14
66381;BME280;53177;52.648;1.214;2023-07-08T10:40:31;101033.84;;;29.60;43.59
66381;BME280;53177;52.648;1.214;2023-07-08T10:49:27;101031.75;;;29.91;42.02
66381;BME280;53177;52.648;1.214;2023-07-08T11:00:31;101041.91;;;29.99;42.90
66381;BME280;53177;52.648;1.214;2023-07-08T11:05:49;101039.84;;;29.27;43.79
66381;BME280;53177;52.648;1.214;2023-07-08T11:08:27;101054.19;;;29.19;43.48
66381;BME280;53177;52.648;1.214;2023-07-08T11:11:01;101060.81;;;28.78;44.67
66381;BME280;53177;52.648;1.214;2023-07-08T11:13:31;101067.97;;;28.60;45.09
66381;BME280;53177;52.648;1.214;2023-07-08T11:16:31;101064.63;;;28.47;46.55
66381;BME280;53177;52.648;1.214;2023-07-08T11:19:04;101080.66;;;28.50;47.63
66381;BME280;53177;52.648;1.214;2023-07-08T11:21:35;101080.03;;;27.87;49.22
66381;BME280;53177;52.648;1.214;2023-07-08T11:24:10;101060.41;;;27.84;49.68
66381;BME280;53177;52.648;1.214;2023-07-08T11:27:18;101062.91;;;27.66;50.78
66381;BME280;53177;52.648;1.214;2023-07-08T11:29:51;101053.41;;;27.81;50.09
66381;BME280;53177;52.648;1.214;2023-07-08T11:32:21;101061.75;;;28.39;51.48
66381;BME280;53177;52.648;1.214;2023-07-08T11:34:49;101055.38;;;28.69;49.31
66381;BME280;53177;52.648;1.214;2023-07-08T11:37:16;101064.97;;;28.73;49.04
66381;BME280;53177;52.648;1.214;2023-07-08T11:39:53;101066.09;;;29.09;47.47
66381;BME280;53177;52.648;1.214;2023-07-08T11:42:22;101063.19;;;29.20;48.48
66381;BME280;53177;52.648;1.214;2023-07-08T11:44:52;101061.66;;;29.73;47.22
66381;BME280;53177;52.648;1.214;2023-07-08T11:47:40;101068.38;;;29.32;46.16
66381;BME280;53177;52.648;1.214;2023-07-08T11:50:32;101073.38;;;28.50;47.17
66381;BME280;53177;52.648;1.214;2023-07-08T11:53:11;101068.41;;;28.84;48.23
66381;BME280;53177;52.648;1.214;2023-07-08T11:55:48;101065.97;;;28.81;49.00
66381;BME280;53177;52.648;1.214;2023-07-08T11:58:32;101073.56;;;28.68;48.29
66381;BME280;53177;52.648;1.214;2023-07-08T12:01:17;101069.97;;;28.87;51.68
66381;BME280;53177;52.648;1.214;2023-07-08T12:03:49;101067.22;;;29.16;47.06
66381;BME280;53177;52.648;1.214;2023-07-08T12:08:56;101062.94;;;29.32;46.45
66381;BME280;53177;52.648;1.214;2023-07-08T12:11:44;101064.38;;;29.36;46.98
66381;BME280;53177;52.648;1.214;2023-07-08T12:14:10;101060.94;;;29.15;47.45
66381;BME280;53177;52.648;1.214;2023-07-08T12:16:36;101066.13;;;29.74;48.84
66381;BME280;53177;52.648;1.214;2023-07-08T12:19:02;101054.53;;;30.00;45.42
66381;BME280;53177;52.648;1.214;2023-07-08T12:21:30;101064.66;;;30.34;46.27
66381;BME280;53177;52.648;1.214;2023-07-08T12:24:06;101048.22;;;29.99;44.57
66381;BME280;53177;52.648;1.214;2023-07-08T12:26:33;101049.28;;;29.88;45.98
66381;BME280;53177;52.648;1.214;2023-07-08T12:28:58;101049.09;;;29.63;45.16
66381;BME280;53177;52.648;1.214;2023-07-08T12:31:23;101056.09;;;30.02;50.86
66381;BME280;53177;52.648;1.214;2023-07-08T12:33:50;101055.75;;;29.87;48.10
66381;BME280;53177;52.648;1.214;2023-07-08T12:36:26;101059.50;;;30.14;46.16
66381;BME280;53177;52.648;1.214;2023-07-08T12:38:55;101057.31;;;29.90;46.88
66381;BME280;53177;52.648;1.214;2023-07-08T12:41:24;101057.69;;;29.58;46.65
66381;BME280;53177;52.648;1.214;2023-07-08T12:43:51;101061.72;;;29.64;47.41
66381;BME280;53177;52.648;1.214;2023-07-08T12:46:18;101056.75;;;29.40;47.82
66381;BME280;53177;52.648;1.214;2023-07-08T12:48:44;101058.94;;;29.73;53.20
66381;BME280;53177;52.648;1.214;2023-07-08T12:51:29;101058.81;;;29.65;47.35
66381;BME280;53177;52.648;1.214;2023-07-08T12:53:56;101056.88;;;29.48;51.21
66381;BME280;53177;52.648;1.214;2023-07-08T12:56:23;101061.03;;;29.52;50.42
66381;BME280;53177;52.648;1.214;2023-07-08T12:58:51;101068.81;;;29.37;49.88
66381;BME280;53177;52.648;1.214;2023-07-08T13:01:20;101057.91;;;29.37;49.08
66381;BME280;53177;52.648;1.214;2023-07-08T13:03:49;101075.56;;;29.14;48.39
66381;BME280;53177;52.648;1.214;2023-07-08T13:06:17;101066.53;;;29.33;48.73
66381;BME280;53177;52.648;1.214;2023-07-08T13:08:45;101075.56;;;29.14;48.03
66381;BME280;53177;52.648;1.214;2023-07-08T13:11:15;101081.03;;;29.05;48.05
66381;BME280;53177;52.648;1.214;2023-07-08T13:13:56;101077.72;;;28.72;49.20
66381;BME280;53177;52.648;1.214;2023-07-08T13:16:26;101085.69;;;28.64;49.50
66381;BME280;53177;52.648;1.214;2023-07-08T13:18:53;101092.25;;;28.33;47.29
66381;BME280;53177;52.648;1.214;2023-07-08T13:21:19;101093.41;;;28.40;49.63
66381;BME280;53177;52.648;1.214;2023-07-08T13:23:45;101093.41;;;28.40;49.41
66381;BME280;53177;52.648;1.214;2023-07-08T13:26:20;101113.50;;;28.58;48.96
66381;BME280;53177;52.648;1.214;2023-07-08T13:28:46;101108.75;;;28.50;48.44
66381;BME280;53177;52.648;1.214;2023-07-08T13:31:17;101109.84;;;28.38;49.53
66381;BME280;53177;52.648;1.214;2023-07-08T13:33:51;101111.97;;;28.16;47.60
66381;BME280;53177;52.648;1.214;2023-07-08T13:36:19;101111.84;;;27.96;48.05
66381;BME280;53177;52.648;1.214;2023-07-08T13:38:46;101110.69;;;27.89;48.74
66381;BME280;53177;52.648;1.214;2023-07-08T13:41:19;101099.81;;;27.89;49.37
66381;BME280;53177;52.648;1.214;2023-07-08T13:43:45;101106.63;;;27.84;48.73
66381;BME280;53177;52.648;1.214;2023-07-08T13:46:33;101103.41;;;27.90;50.18
66381;BME280;53177;52.648;1.214;2023-07-08T13:51:44;101126.88;;;27.70;47.08